createdAt,value
2023-02-09T00:01:00.773Z,47.71
2023-02-09T00:02:05.223Z,47.68
2023-02-09T00:03:13.348Z,47.71
2023-02-09T00:04:15.448Z,47.65
2023-02-09T00:05:18.046Z,48.05
2023-02-09T00:06:21.543Z,47.78
2023-02-09T00:07:24.036Z,47.62
2023-02-09T00:08:26.337Z,47.80
2023-02-09T00:09:28.948Z,47.75
2023-02-09T00:10:30.488Z,47.74
2023-02-09T00:11:51.926Z,48.08
2023-02-09T00:13:12.672Z,47.70
2023-02-09T00:14:19.114Z,48.02
2023-02-09T00:15:23.178Z,47.84
2023-02-09T00:16:26.451Z,47.83
2023-02-09T00:17:28.130Z,48.04
2023-02-09T00:18:32.922Z,48.05
2023-02-09T00:19:34.927Z,48.32
2023-02-09T00:20:37.397Z,48.38
2023-02-09T00:21:39.254Z,48.37
2023-02-09T00:22:41.843Z,48.28
2023-02-09T00:23:43.446Z,48.33
2023-02-09T00:24:46.142Z,48.52
2023-02-09T00:25:47.705Z,48.17
2023-02-09T00:26:50.820Z,48.40
2023-02-09T00:27:56.204Z,48.35
2023-02-09T00:28:59.037Z,48.43
2023-02-09T00:30:01.177Z,48.72
2023-02-09T00:31:08.957Z,48.70
2023-02-09T00:32:10.579Z,48.77
2023-02-09T00:33:13.524Z,48.23
2023-02-09T00:34:15.766Z,48.47
2023-02-09T00:35:18.806Z,48.52
2023-02-09T00:36:20.404Z,48.46
2023-02-09T00:37:22.895Z,48.69
2023-02-09T00:38:24.402Z,48.47
2023-02-09T00:39:26.909Z,48.92
2023-02-09T00:40:28.508Z,48.43
2023-02-09T00:41:52.735Z,48.62
2023-02-09T00:42:55.210Z,48.68
2023-02-09T00:43:56.717Z,48.92
2023-02-09T00:44:59.238Z,48.78
2023-02-09T00:46:01.242Z,49.00
2023-02-09T00:47:06.065Z,48.82
2023-02-09T00:48:07.610Z,48.78
2023-02-09T00:49:10.119Z,49.12
2023-02-09T00:50:11.673Z,48.82
2023-02-09T00:51:14.177Z,48.90
2023-02-09T00:52:16.343Z,49.03
2023-02-09T00:53:29.059Z,48.70
2023-02-09T00:54:30.868Z,48.70
2023-02-09T00:55:33.944Z,48.77
2023-02-09T00:56:36.131Z,49.19
2023-02-09T00:57:38.766Z,49.03
2023-02-09T00:58:40.349Z,49.41
2023-02-09T00:59:42.841Z,49.02
2023-02-09T01:00:45.193Z,49.17
2023-02-09T01:01:47.860Z,49.34
2023-02-09T01:02:50.737Z,49.19
2023-02-09T01:03:53.236Z,48.94
2023-02-09T01:04:54.858Z,49.06
2023-02-09T01:05:59.447Z,49.20
2023-02-09T01:07:01.049Z,49.36
2023-02-09T01:08:03.824Z,49.28
2023-02-09T01:09:05.578Z,49.83
2023-02-09T01:10:09.156Z,49.48
2023-02-09T01:11:12.541Z,49.37
2023-02-09T01:12:15.213Z,49.29
2023-02-09T01:13:17.473Z,49.42
2023-02-09T01:14:20.794Z,49.67
2023-02-09T01:15:23.356Z,49.90
2023-02-09T01:16:28.531Z,49.88
2023-02-09T01:17:31.115Z,49.79
2023-02-09T01:18:34.401Z,49.73
2023-02-09T01:19:40.484Z,49.58
2023-02-09T01:20:42.102Z,50.08
2023-02-09T01:21:44.581Z,49.57
2023-02-09T01:22:46.167Z,50.00
2023-02-09T01:23:49.438Z,50.15
2023-02-09T01:24:51.003Z,50.15
2023-02-09T01:26:02.158Z,50.08
2023-02-09T01:27:03.994Z,50.15
2023-02-09T01:28:07.458Z,50.48
2023-02-09T01:29:12.596Z,49.91
2023-02-09T01:30:15.562Z,50.20
2023-02-09T01:31:24.271Z,50.30
2023-02-09T01:32:26.990Z,50.35
2023-02-09T01:33:29.239Z,50.24
2023-02-09T01:34:33.145Z,50.36
2023-02-09T01:35:35.126Z,50.41
2023-02-09T01:36:43.176Z,50.57
2023-02-09T01:37:45.121Z,50.27
2023-02-09T01:38:48.649Z,50.49
2023-02-09T01:39:50.178Z,50.75
2023-02-09T01:40:52.690Z,50.86
2023-02-09T01:41:54.252Z,50.63
2023-02-09T01:42:57.077Z,50.84
2023-02-09T01:44:00.626Z,50.90
2023-02-09T01:45:21.935Z,50.74
2023-02-09T01:46:26.660Z,51.20
2023-02-09T01:47:29.490Z,51.23
2023-02-09T01:48:34.044Z,51.15
2023-02-09T01:49:38.132Z,51.02
2023-02-09T01:50:46.753Z,50.84
2023-02-09T01:51:52.313Z,50.99
2023-02-09T01:52:55.894Z,50.89
2023-02-09T01:53:57.931Z,50.98
2023-02-09T01:55:14.250Z,50.98
2023-02-09T01:56:30.694Z,51.42
2023-02-09T01:57:36.948Z,51.06
2023-02-09T01:58:39.179Z,51.31
2023-02-09T01:59:44.763Z,51.20
2023-02-09T02:00:46.956Z,51.07
2023-02-09T02:01:49.871Z,51.47
2023-02-09T02:02:54.907Z,51.49
2023-02-09T02:03:57.641Z,51.38
2023-02-09T02:05:00.780Z,51.15
2023-02-09T02:06:07.060Z,51.41
2023-02-09T02:07:12.381Z,51.15
2023-02-09T02:08:20.378Z,51.41
2023-02-09T02:09:25.044Z,51.69
2023-02-09T02:10:27.594Z,51.33
2023-02-09T02:11:30.172Z,51.39
2023-02-09T02:12:32.464Z,51.93
2023-02-09T02:13:35.695Z,52.18
2023-02-09T02:14:39.459Z,51.70
2023-02-09T02:15:49.135Z,51.98
2023-02-09T02:17:00.350Z,51.67
2023-02-09T02:18:18.790Z,51.70
2023-02-09T02:19:57.383Z,51.60
2023-02-09T02:21:43.112Z,51.76
2023-02-09T02:23:05.863Z,51.82
2023-02-09T02:24:40.182Z,52.22
2023-02-09T02:26:08.046Z,52.20
2023-02-09T02:27:16.116Z,52.21
2023-02-09T02:28:37.633Z,51.93
2023-02-09T02:34:20.931Z,52.20
2023-02-09T02:35:34.405Z,52.45
2023-02-09T02:36:42.996Z,52.62
2023-02-09T02:37:54.348Z,52.79
2023-02-09T02:39:03.536Z,52.24
2023-02-09T02:40:15.415Z,52.76
2023-02-09T02:41:25.685Z,52.90
2023-02-09T02:42:49.821Z,52.90
2023-02-09T02:44:01.812Z,52.93
2023-02-09T02:45:12.023Z,52.99
2023-02-09T02:46:22.876Z,53.33
2023-02-09T02:47:28.522Z,52.80
2023-02-09T02:48:36.593Z,53.07
2023-02-09T02:49:42.595Z,52.78
2023-02-09T02:50:49.387Z,52.89
2023-02-09T02:51:55.440Z,53.37
2023-02-09T02:53:02.856Z,53.01
2023-02-09T02:54:11.832Z,53.42
2023-02-09T02:55:16.417Z,53.13
2023-02-09T02:56:24.441Z,53.56
2023-02-09T02:57:29.718Z,53.74
2023-02-09T02:58:36.303Z,53.49
2023-02-09T02:59:42.479Z,53.90
2023-02-09T03:00:49.432Z,53.45
2023-02-09T03:01:56.522Z,53.78
2023-02-09T03:03:12.790Z,53.47
2023-02-09T03:04:27.235Z,53.91
2023-02-09T03:05:32.233Z,53.64
2023-02-09T03:06:37.803Z,53.96
2023-02-09T03:07:39.384Z,54.08
2023-02-09T03:08:50.686Z,53.86
2023-02-09T03:09:53.852Z,53.72
2023-02-09T03:10:56.663Z,53.62
2023-02-09T03:12:10.336Z,53.64
2023-02-09T03:13:21.632Z,54.01
2023-02-09T03:14:40.892Z,54.11
2023-02-09T03:15:58.873Z,53.86
2023-02-09T03:17:14.487Z,54.30
2023-02-09T03:18:24.417Z,54.31
2023-02-09T03:19:39.069Z,53.98
2023-02-09T03:20:47.107Z,54.37
2023-02-09T03:21:54.562Z,54.50
2023-02-09T03:23:02.364Z,54.40
2023-02-09T03:24:09.462Z,54.71
2023-02-09T03:25:20.645Z,54.78
2023-02-09T03:26:28.942Z,54.26
2023-02-09T03:27:34.310Z,54.63
2023-02-09T03:28:39.567Z,54.46
2023-02-09T03:29:44.867Z,54.37
2023-02-09T03:30:50.090Z,54.59
2023-02-09T03:31:53.094Z,54.80
2023-02-09T03:32:56.210Z,54.18
2023-02-09T03:33:59.624Z,54.40
2023-02-09T03:35:01.238Z,54.66
2023-02-09T03:36:09.877Z,54.89
2023-02-09T03:37:12.110Z,54.72
2023-02-09T03:38:14.607Z,55.10
2023-02-09T03:39:16.368Z,54.60
2023-02-09T03:40:21.485Z,55.16
2023-02-09T03:41:23.088Z,55.16
2023-02-09T03:42:25.627Z,55.22
2023-02-09T03:43:42.052Z,55.27
2023-02-09T03:44:44.583Z,54.67
2023-02-09T03:45:46.156Z,54.64
2023-02-09T03:46:48.689Z,55.31
2023-02-09T03:47:51.249Z,54.99
2023-02-09T03:48:52.786Z,55.01
2023-02-09T03:49:55.274Z,55.38
2023-02-09T03:50:57.136Z,55.48
2023-02-09T03:52:02.550Z,55.04
2023-02-09T03:53:06.398Z,55.56
2023-02-09T03:54:14.880Z,55.60
2023-02-09T03:55:17.106Z,55.06
2023-02-09T03:56:19.601Z,54.83
2023-02-09T03:57:22.080Z,55.15
2023-02-09T03:58:24.246Z,55.07
2023-02-09T03:59:28.467Z,55.41
2023-02-09T04:00:30.114Z,55.69
2023-02-09T04:01:34.229Z,55.85
2023-02-09T04:02:35.856Z,56.02
2023-02-09T04:03:39.770Z,55.44
2023-02-09T04:04:41.383Z,55.76
2023-02-09T04:05:43.992Z,55.56
2023-02-09T04:06:45.722Z,55.96
2023-02-09T04:07:49.569Z,55.40
2023-02-09T04:08:51.131Z,56.02
2023-02-09T04:12:25.901Z,55.39
2023-02-09T04:13:35.837Z,55.41
2023-02-09T04:14:39.105Z,56.02
2023-02-09T04:15:40.659Z,56.27
2023-02-09T04:16:43.642Z,55.82
2023-02-09T04:17:45.322Z,56.24
2023-02-09T04:18:47.884Z,55.98
2023-02-09T04:19:49.485Z,55.68
2023-02-09T04:20:52.035Z,56.26
2023-02-09T04:21:53.529Z,56.26
2023-02-09T04:22:57.373Z,56.65
2023-02-09T04:23:58.968Z,56.36
2023-02-09T04:25:01.522Z,56.54
2023-02-09T04:26:03.245Z,56.21
2023-02-09T04:27:05.760Z,56.14
2023-02-09T04:28:07.465Z,56.15
2023-02-09T04:29:11.047Z,56.91
2023-02-09T04:30:19.077Z,56.70
2023-02-09T04:31:40.407Z,56.62
2023-02-09T04:33:00.350Z,56.95
2023-02-09T04:34:24.001Z,56.84
2023-02-09T04:35:25.550Z,56.75
2023-02-09T04:36:29.205Z,56.64
2023-02-09T04:37:30.715Z,56.39
2023-02-09T04:38:34.662Z,56.82
2023-02-09T04:39:36.201Z,56.98
2023-02-09T04:40:38.782Z,56.56
2023-02-09T04:41:40.314Z,57.25
2023-02-09T04:42:46.085Z,57.26
2023-02-09T04:43:47.723Z,57.35
2023-02-09T04:44:50.751Z,56.88
2023-02-09T04:45:53.005Z,57.26
2023-02-09T04:46:55.578Z,56.98
2023-02-09T04:47:57.088Z,57.60
2023-02-09T04:49:01.396Z,57.33
2023-02-09T04:50:07.026Z,57.42
2023-02-09T04:51:12.896Z,56.90
2023-02-09T04:52:14.454Z,56.83
2023-02-09T04:53:17.493Z,57.55
2023-02-09T04:54:20.364Z,57.46
2023-02-09T04:55:23.181Z,57.52
2023-02-09T04:56:24.701Z,57.22
2023-02-09T04:57:44.869Z,57.12
2023-02-09T04:59:05.266Z,57.60
2023-02-09T05:00:09.186Z,57.60
2023-02-09T05:01:20.175Z,57.24
2023-02-09T05:02:22.704Z,57.56
2023-02-09T05:03:25.839Z,57.16
2023-02-09T05:04:28.379Z,57.33
2023-02-09T05:05:30.212Z,57.24
2023-02-09T05:06:32.724Z,57.28
2023-02-09T05:07:34.241Z,57.25
2023-02-09T05:08:37.020Z,57.21
2023-02-09T05:09:40.099Z,57.17
2023-02-09T05:10:43.614Z,57.71
2023-02-09T05:11:45.719Z,58.05
2023-02-09T05:12:48.434Z,57.03
2023-02-09T05:13:50.127Z,57.27
2023-02-09T05:14:52.588Z,57.98
2023-02-09T05:15:54.487Z,57.48
2023-02-09T05:16:57.014Z,57.43
2023-02-09T05:17:58.656Z,57.52
2023-02-09T05:19:01.273Z,57.75
2023-02-09T05:20:03.269Z,57.57
2023-02-09T05:21:06.508Z,57.48
2023-02-09T05:22:08.059Z,57.91
2023-02-09T05:23:11.310Z,57.31
2023-02-09T05:24:12.937Z,58.24
2023-02-09T05:25:17.011Z,57.47
2023-02-09T05:26:24.763Z,58.01
2023-02-09T05:27:37.275Z,58.02
2023-02-09T05:28:41.132Z,57.33
2023-02-09T05:29:42.666Z,57.81
2023-02-09T05:30:45.592Z,57.71
2023-02-09T05:31:50.050Z,58.06
2023-02-09T05:32:52.650Z,57.71
2023-02-09T05:33:55.232Z,57.84
2023-02-09T05:34:56.761Z,58.26
2023-02-09T05:35:59.285Z,57.94
2023-02-09T05:37:00.843Z,57.82
2023-02-09T05:38:03.431Z,57.60
2023-02-09T05:39:05.024Z,57.94
2023-02-09T05:40:09.087Z,58.03
2023-02-09T05:41:35.065Z,58.23
2023-02-09T05:42:36.625Z,58.02
2023-02-09T05:43:39.312Z,57.85
2023-02-09T05:44:40.977Z,58.36
2023-02-09T05:45:44.549Z,57.85
2023-02-09T05:46:46.532Z,58.39
2023-02-09T05:47:50.978Z,58.38
2023-02-09T05:48:52.567Z,58.44
2023-02-09T05:49:55.052Z,58.17
2023-02-09T05:50:56.553Z,58.05
2023-02-09T05:51:59.198Z,58.09
2023-02-09T05:53:01.757Z,58.77
2023-02-09T05:54:03.480Z,58.14
2023-02-09T05:55:06.535Z,58.30
2023-02-09T05:56:08.083Z,58.22
2023-02-09T05:57:11.922Z,58.05
2023-02-09T05:58:13.743Z,58.61
2023-02-09T05:59:24.602Z,58.86
2023-02-09T06:00:29.649Z,58.69
2023-02-09T06:01:31.659Z,58.10
2023-02-09T06:02:34.432Z,58.64
2023-02-09T06:03:40.278Z,58.74
2023-02-09T06:04:42.848Z,58.68
2023-02-09T06:05:45.136Z,58.57
2023-02-09T06:06:47.777Z,58.81
2023-02-09T06:07:50.327Z,58.27
2023-02-09T06:08:53.074Z,58.87
2023-02-09T06:09:54.661Z,59.11
2023-02-09T06:10:57.115Z,58.68
2023-02-09T06:11:59.656Z,58.53
2023-02-09T06:13:02.532Z,58.39
2023-02-09T06:14:05.020Z,58.75
2023-02-09T06:15:07.288Z,58.91
2023-02-09T06:16:19.900Z,58.83
2023-02-09T06:17:23.451Z,58.90
2023-02-09T06:18:26.056Z,58.48
2023-02-09T06:19:27.588Z,58.50
2023-02-09T06:20:30.178Z,58.53
2023-02-09T06:21:31.743Z,58.71
2023-02-09T06:22:34.269Z,58.64
2023-02-09T06:23:35.806Z,58.60
2023-02-09T06:24:38.544Z,58.72
2023-02-09T06:25:40.390Z,58.76
2023-02-09T06:26:43.449Z,58.41
2023-02-09T06:27:46.015Z,58.73
2023-02-09T06:28:49.064Z,58.62
2023-02-09T06:29:51.528Z,58.92
2023-02-09T06:30:53.984Z,58.54
2023-02-09T06:31:56.641Z,58.49
2023-02-09T06:32:58.840Z,58.81
2023-02-09T06:34:01.388Z,58.91
2023-02-09T06:35:03.807Z,59.04
2023-02-09T06:36:15.236Z,58.72
2023-02-09T06:37:16.833Z,58.89
2023-02-09T06:38:19.396Z,59.29
2023-02-09T06:39:20.963Z,59.28
2023-02-09T06:40:23.542Z,59.22
2023-02-09T06:41:26.048Z,59.00
2023-02-09T06:42:43.533Z,58.71
2023-02-09T06:43:46.138Z,59.41
2023-02-09T06:44:50.160Z,59.41
2023-02-09T06:45:51.875Z,58.70
2023-02-09T06:46:54.464Z,59.17
2023-02-09T06:48:01.480Z,59.46
2023-02-09T06:49:04.892Z,59.02
2023-02-09T06:50:07.213Z,59.04
2023-02-09T06:51:11.668Z,59.44
2023-02-09T06:52:15.221Z,59.71
2023-02-09T06:53:19.314Z,59.24
2023-02-09T06:54:22.575Z,58.88
2023-02-09T06:55:24.490Z,59.81
2023-02-09T06:56:45.971Z,59.74
2023-02-09T06:58:06.128Z,58.89
2023-02-09T06:59:27.352Z,58.90
2023-02-09T07:00:31.573Z,59.79
2023-02-09T07:01:34.143Z,59.40
2023-02-09T07:02:36.161Z,59.50
2023-02-09T07:03:44.761Z,59.15
2023-02-09T07:04:49.658Z,59.36
2023-02-09T07:06:07.430Z,59.63
2023-02-09T07:07:10.446Z,59.41
2023-02-09T07:08:12.997Z,59.08
2023-02-09T07:09:15.514Z,59.24
2023-02-09T07:10:18.928Z,59.14
2023-02-09T07:11:21.626Z,59.38
2023-02-09T07:12:34.818Z,59.79
2023-02-09T07:13:36.708Z,59.38
2023-02-09T07:14:39.228Z,59.32
2023-02-09T07:15:42.283Z,59.34
2023-02-09T07:16:44.804Z,59.62
2023-02-09T07:17:46.413Z,59.63
2023-02-09T07:18:48.943Z,60.10
2023-02-09T07:19:50.536Z,59.21
2023-02-09T07:20:58.342Z,59.86
2023-02-09T07:22:01.408Z,59.55
2023-02-09T07:23:09.097Z,59.66
2023-02-09T07:24:11.582Z,59.44
2023-02-09T07:25:13.151Z,59.52
2023-02-09T07:26:17.562Z,59.36
2023-02-09T07:27:22.414Z,59.68
2023-02-09T07:28:24.943Z,59.05
2023-02-09T07:29:26.525Z,59.37
2023-02-09T07:30:29.106Z,59.19
2023-02-09T07:31:33.564Z,59.81
2023-02-09T07:32:38.042Z,59.14
2023-02-09T07:33:39.754Z,58.99
2023-02-09T07:34:42.569Z,59.60
2023-02-09T07:35:45.861Z,59.54
2023-02-09T07:36:48.918Z,59.58
2023-02-09T07:37:50.551Z,59.11
2023-02-09T07:38:53.385Z,59.03
2023-02-09T07:39:54.965Z,59.17
2023-02-09T07:40:59.858Z,58.96
2023-02-09T07:42:02.535Z,58.97
2023-02-09T07:43:04.410Z,58.89
2023-02-09T07:44:07.059Z,58.88
2023-02-09T07:45:10.130Z,59.22
2023-02-09T07:46:16.579Z,59.39
2023-02-09T07:47:20.427Z,59.41
2023-02-09T07:48:33.584Z,58.72
2023-02-09T07:49:45.162Z,59.33
2023-02-09T07:50:51.238Z,58.70
2023-02-09T07:52:01.719Z,58.78
2023-02-09T07:56:15.571Z,58.61
2023-02-09T07:57:18.038Z,58.80
2023-02-09T07:58:21.022Z,58.99
2023-02-09T07:59:23.740Z,58.28
2023-02-09T08:00:26.030Z,58.99
2023-02-09T08:01:31.730Z,58.63
2023-02-09T08:02:36.665Z,58.93
2023-02-09T08:03:40.258Z,58.81
2023-02-09T08:04:43.459Z,58.66
2023-02-09T08:05:52.088Z,58.93
2023-02-09T08:07:01.477Z,58.45
2023-02-09T08:08:05.919Z,58.47
2023-02-09T08:09:09.184Z,58.35
2023-02-09T08:10:10.760Z,58.74
2023-02-09T08:11:13.907Z,58.55
2023-02-09T08:12:15.615Z,58.17
2023-02-09T08:13:18.570Z,58.59
2023-02-09T08:14:24.439Z,57.99
2023-02-09T08:15:29.680Z,58.63
2023-02-09T08:16:35.019Z,58.27
2023-02-09T08:17:38.064Z,58.34
2023-02-09T08:18:45.018Z,58.60
2023-02-09T08:19:53.394Z,57.89
2023-02-09T08:20:56.787Z,57.78
2023-02-09T08:21:58.435Z,58.05
2023-02-09T08:23:06.676Z,57.79
2023-02-09T08:24:10.938Z,57.88
2023-02-09T08:25:14.958Z,58.14
2023-02-09T08:26:27.666Z,57.96
2023-02-09T08:27:29.989Z,57.84
2023-02-09T08:28:43.682Z,58.20
2023-02-09T08:29:47.961Z,57.93
2023-02-09T08:30:51.809Z,58.07
2023-02-09T08:31:53.529Z,58.18
2023-02-09T08:32:57.353Z,57.95
2023-02-09T08:33:59.860Z,58.17
2023-02-09T08:35:01.740Z,57.91
2023-02-09T08:36:04.673Z,57.79
2023-02-09T08:37:07.849Z,57.68
2023-02-09T08:38:11.136Z,57.57
2023-02-09T08:39:13.657Z,57.75
2023-02-09T08:40:15.481Z,57.70
2023-02-09T08:41:19.695Z,57.97
2023-02-09T08:42:21.383Z,57.78
2023-02-09T08:43:23.920Z,57.54
2023-02-09T08:44:26.503Z,57.71
2023-02-09T08:45:28.769Z,57.15
2023-02-09T08:46:31.563Z,57.37
2023-02-09T08:47:33.279Z,57.40
2023-02-09T08:48:39.168Z,57.56
2023-02-09T08:49:41.506Z,57.54
2023-02-09T08:50:44.036Z,57.10
2023-02-09T08:51:46.838Z,57.09
2023-02-09T08:52:49.544Z,57.37
2023-02-09T08:53:52.564Z,57.26
2023-02-09T08:54:55.282Z,57.09
2023-02-09T08:55:58.099Z,57.45
2023-02-09T08:57:00.603Z,56.91
2023-02-09T08:58:03.096Z,57.26
2023-02-09T08:59:05.127Z,57.22
2023-02-09T09:00:08.308Z,56.86
2023-02-09T09:01:13.279Z,57.24
2023-02-09T09:02:16.005Z,57.55
2023-02-09T09:03:18.759Z,57.27
2023-02-09T09:04:23.258Z,56.94
2023-02-09T09:05:26.690Z,56.85
2023-02-09T09:06:30.848Z,56.96
2023-02-09T09:07:43.796Z,57.07
2023-02-09T09:08:47.054Z,56.97
2023-02-09T09:09:49.779Z,56.97
2023-02-09T09:10:53.899Z,57.18
2023-02-09T09:12:03.192Z,57.05
2023-02-09T09:13:07.988Z,57.25
2023-02-09T09:14:13.880Z,57.15
2023-02-09T09:15:26.610Z,57.42
2023-02-09T09:16:30.112Z,56.84
2023-02-09T09:17:37.089Z,57.28
2023-02-09T09:23:30.840Z,56.74
2023-02-09T09:24:40.692Z,56.78
2023-02-09T09:25:49.158Z,56.55
2023-02-09T09:27:01.711Z,56.83
2023-02-09T09:28:03.997Z,56.75
2023-02-09T09:29:06.841Z,57.04
2023-02-09T09:30:19.099Z,56.90
2023-02-09T09:31:27.098Z,56.73
2023-02-09T09:32:29.908Z,57.07
2023-02-09T09:33:31.778Z,57.04
2023-02-09T09:37:41.609Z,56.61
2023-02-09T09:38:45.505Z,56.61
2023-02-09T09:39:48.032Z,56.65
2023-02-09T09:40:50.567Z,56.31
2023-02-09T09:41:59.645Z,56.54
2023-02-09T09:43:05.408Z,56.33
2023-02-09T09:44:16.005Z,56.63
2023-02-09T09:45:22.497Z,56.54
2023-02-09T09:46:33.812Z,56.41
2023-02-09T09:47:39.215Z,56.50
2023-02-09T09:48:44.086Z,56.46
2023-02-09T09:49:47.393Z,56.44
2023-02-09T09:50:52.334Z,56.52
2023-02-09T09:52:00.214Z,56.19
2023-02-09T09:53:08.020Z,56.35
2023-02-09T09:54:17.890Z,56.24
2023-02-09T09:55:25.099Z,56.47
2023-02-09T09:56:30.608Z,56.51
2023-02-09T09:57:33.826Z,56.15
2023-02-09T09:58:40.136Z,56.22
2023-02-09T09:59:43.225Z,56.15
2023-02-09T10:00:46.517Z,56.06
2023-02-09T10:01:50.983Z,56.11
2023-02-09T10:02:54.491Z,56.25
2023-02-09T10:03:59.397Z,55.97
2023-02-09T10:05:11.424Z,56.09
2023-02-09T10:06:16.168Z,56.00
2023-02-09T10:07:23.668Z,55.94
2023-02-09T10:08:37.765Z,55.77
2023-02-09T10:09:45.518Z,56.04
2023-02-09T10:10:54.699Z,55.67
2023-02-09T10:12:08.430Z,55.75
2023-02-09T10:13:21.446Z,55.64
2023-02-09T10:14:23.966Z,55.73
2023-02-09T10:15:30.078Z,55.94
2023-02-09T10:16:38.002Z,55.85
2023-02-09T10:17:40.670Z,55.56
2023-02-09T10:18:44.384Z,55.63
2023-02-09T10:20:01.917Z,55.52
2023-02-09T10:21:07.344Z,55.84
2023-02-09T10:22:13.439Z,55.50
2023-02-09T10:23:17.882Z,55.70
2023-02-09T10:24:24.394Z,55.49
2023-02-09T10:25:53.752Z,55.56
2023-02-09T10:27:06.119Z,55.44
2023-02-09T10:28:20.298Z,55.42
2023-02-09T10:29:25.636Z,55.13
2023-02-09T10:30:29.706Z,55.38
2023-02-09T10:31:34.673Z,55.08
2023-02-09T10:32:40.201Z,55.55
2023-02-09T10:33:45.325Z,55.14
2023-02-09T10:35:04.592Z,55.05
2023-02-09T10:36:24.867Z,55.12
2023-02-09T10:37:36.607Z,55.16
2023-02-09T10:38:49.867Z,55.09
2023-02-09T10:40:07.729Z,55.08
2023-02-09T10:41:15.216Z,54.81
2023-02-09T10:42:24.469Z,54.96
2023-02-09T10:43:29.793Z,54.66
2023-02-09T10:44:40.141Z,54.79
2023-02-09T10:45:46.221Z,54.95
2023-02-09T10:46:50.568Z,54.72
2023-02-09T10:48:01.028Z,54.74
2023-02-09T10:49:12.025Z,54.76
2023-02-09T10:50:19.349Z,54.51
2023-02-09T10:51:28.812Z,54.68
2023-02-09T10:52:34.733Z,54.48
2023-02-09T10:53:40.680Z,54.61
2023-02-09T10:54:44.702Z,54.47
2023-02-09T10:58:25.457Z,54.26
2023-02-09T11:04:18.964Z,54.08
2023-02-09T11:05:32.310Z,54.20
2023-02-09T11:06:44.169Z,53.79
2023-02-09T11:07:52.664Z,54.04
2023-02-09T11:09:01.293Z,53.86
2023-02-09T11:10:12.569Z,54.05
2023-02-09T11:11:27.635Z,53.98
2023-02-09T11:12:30.308Z,53.94
2023-02-09T11:13:35.264Z,53.71
2023-02-09T11:14:38.387Z,53.71
2023-02-09T11:15:46.178Z,53.79
2023-02-09T11:16:56.677Z,53.64
2023-02-09T11:25:55.444Z,53.29
2023-02-09T11:27:02.722Z,53.13
2023-02-09T11:28:33.491Z,53.02
2023-02-09T11:29:44.318Z,53.06
2023-02-09T11:31:01.505Z,53.04
2023-02-09T11:32:17.939Z,52.79
2023-02-09T11:33:27.319Z,52.59
2023-02-09T11:34:54.943Z,52.79
2023-02-09T11:36:08.715Z,52.66
2023-02-09T11:37:24.902Z,52.84
2023-02-09T11:38:37.912Z,52.37
2023-02-09T11:39:47.677Z,52.55
2023-02-09T11:45:36.532Z,52.07
2023-02-09T11:46:42.099Z,51.96
2023-02-09T11:47:55.391Z,51.75
2023-02-09T11:49:02.457Z,51.65
2023-02-09T11:50:10.580Z,51.70
2023-02-09T11:51:18.551Z,51.53
2023-02-09T11:52:28.308Z,51.11
2023-02-09T11:53:37.710Z,51.47
2023-02-09T11:54:39.751Z,51.54
2023-02-09T11:55:47.729Z,51.47
2023-02-09T11:56:53.685Z,51.41
2023-02-09T11:58:07.037Z,51.29
2023-02-09T11:59:22.985Z,51.29
2023-02-09T12:00:31.814Z,51.35
2023-02-09T12:01:43.256Z,50.97
2023-02-09T12:02:53.484Z,51.13
2023-02-09T12:04:04.104Z,51.22
2023-02-09T12:05:11.335Z,51.11
2023-02-09T12:06:17.141Z,50.96
2023-02-09T12:07:28.685Z,50.54
2023-02-09T12:08:42.298Z,50.47
2023-02-09T12:09:50.772Z,50.56
2023-02-09T12:11:05.674Z,50.50
2023-02-09T12:12:19.636Z,50.43
2023-02-09T12:13:34.398Z,49.97
2023-02-09T12:14:47.564Z,50.02
2023-02-09T12:15:53.774Z,50.12
2023-02-09T12:17:04.405Z,50.02
2023-02-09T12:18:13.506Z,49.89
2023-02-09T12:19:29.023Z,49.92
2023-02-09T12:20:50.310Z,50.02
2023-02-09T12:21:54.017Z,49.77
2023-02-09T12:23:01.442Z,49.79
2023-02-09T12:24:32.583Z,49.57
2023-02-09T12:26:00.472Z,49.63
2023-02-09T12:27:02.037Z,49.70
2023-02-09T12:28:46.013Z,49.63
2023-02-09T12:29:48.578Z,49.32
2023-02-09T12:31:02.020Z,49.29
2023-02-09T12:32:30.561Z,49.24
2023-02-09T12:33:35.914Z,49.06
2023-02-09T12:34:40.823Z,49.02
2023-02-09T12:36:00.408Z,48.95
2023-02-09T12:37:27.317Z,48.89
2023-02-09T12:39:05.651Z,48.88
2023-02-09T12:40:36.241Z,49.12
2023-02-09T12:42:16.563Z,49.05
2023-02-09T12:43:30.424Z,49.23
2023-02-09T12:44:54.235Z,49.12
2023-02-09T12:46:16.784Z,48.89
2023-02-09T12:47:47.291Z,49.12
2023-02-09T12:49:03.671Z,49.05
2023-02-09T12:50:22.951Z,48.85
2023-02-09T12:51:56.332Z,48.88
2023-02-09T12:53:34.529Z,49.11
2023-02-09T12:54:43.555Z,49.25
2023-02-09T12:56:24.900Z,49.12
2023-02-09T12:57:50.165Z,48.94
2023-02-09T12:58:57.783Z,48.98
2023-02-09T13:00:40.990Z,48.89
2023-02-09T13:02:12.043Z,48.87
2023-02-09T13:03:22.440Z,48.91
2023-02-09T13:04:24.270Z,48.70
2023-02-09T13:05:29.077Z,48.61
2023-02-09T13:06:40.187Z,48.62
2023-02-09T13:07:50.050Z,48.69
2023-02-09T13:08:55.737Z,48.87
2023-02-09T13:10:01.597Z,48.59
2023-02-09T13:11:19.154Z,48.46
2023-02-09T13:12:39.105Z,48.71
2023-02-09T13:13:49.069Z,48.47
2023-02-09T13:14:51.834Z,48.47
2023-02-09T13:16:14.112Z,48.51
2023-02-09T13:17:32.002Z,48.54
2023-02-09T13:18:47.249Z,48.46
2023-02-09T13:20:04.944Z,48.80
2023-02-09T13:21:19.538Z,48.25
2023-02-09T13:22:33.726Z,48.52
2023-02-09T13:23:47.172Z,48.56
2023-02-09T13:24:55.788Z,48.55
2023-02-09T13:26:18.726Z,48.33
2023-02-09T13:27:22.937Z,48.51
2023-02-09T13:28:26.420Z,48.53
2023-02-09T13:29:31.649Z,48.43
2023-02-09T13:30:35.182Z,48.54
2023-02-09T13:31:42.589Z,48.40
2023-02-09T13:32:56.236Z,48.30
2023-02-09T13:34:07.816Z,48.25
2023-02-09T13:35:20.217Z,48.32
2023-02-09T13:36:41.948Z,48.43
2023-02-09T13:37:47.750Z,48.13
2023-02-09T13:38:50.692Z,48.15
2023-02-09T13:40:00.681Z,48.07
2023-02-09T13:41:26.692Z,48.09
2023-02-09T13:42:31.921Z,48.49
2023-02-09T13:43:38.216Z,48.29
2023-02-09T13:44:45.142Z,48.36
2023-02-09T13:45:48.817Z,48.22
2023-02-09T13:46:57.056Z,48.23
2023-02-09T13:48:00.584Z,48.49
2023-02-09T13:49:18.719Z,48.19
2023-02-09T13:50:23.874Z,48.51
2023-02-09T13:51:26.353Z,48.46
2023-02-09T13:52:36.369Z,48.17
2023-02-09T13:53:41.102Z,48.48
2023-02-09T13:54:45.400Z,48.36
2023-02-09T13:55:50.022Z,48.48
2023-02-09T13:56:53.129Z,48.34
2023-02-09T13:58:01.674Z,48.62
2023-02-09T13:59:05.222Z,48.18
2023-02-09T14:00:21.743Z,48.55
2023-02-09T14:01:30.691Z,48.52
2023-02-09T14:02:37.244Z,48.42
2023-02-09T14:03:57.560Z,48.46
2023-02-09T14:05:03.982Z,48.61
2023-02-09T14:06:11.617Z,48.64
2023-02-09T14:07:14.492Z,48.58
2023-02-09T14:08:19.084Z,48.49
2023-02-09T14:09:25.469Z,48.40
2023-02-09T14:10:30.932Z,48.65
2023-02-09T14:11:42.977Z,48.53
2023-02-09T14:12:55.648Z,48.40
2023-02-09T14:14:03.958Z,48.27
2023-02-09T14:15:24.815Z,48.02
2023-02-09T14:16:28.916Z,48.16
2023-02-09T14:17:34.743Z,48.20
2023-02-09T14:18:47.446Z,48.03
2023-02-09T14:19:50.640Z,48.11
2023-02-09T14:21:28.062Z,47.72
2023-02-09T14:22:33.076Z,47.68
2023-02-09T14:23:35.589Z,47.66
2023-02-09T14:24:44.342Z,47.56
2023-02-09T14:26:01.727Z,47.88
2023-02-09T14:27:19.773Z,47.77
2023-02-09T14:28:22.360Z,48.02
2023-02-09T14:29:27.498Z,48.12
2023-02-09T14:30:36.183Z,48.03
2023-02-09T14:31:43.484Z,47.73
2023-02-09T14:32:57.753Z,47.75
2023-02-09T14:34:00.435Z,47.43
2023-02-09T14:35:17.207Z,47.66
2023-02-09T14:36:29.958Z,47.70
2023-02-09T14:37:32.465Z,47.30
2023-02-09T14:38:38.350Z,47.52
2023-02-09T14:39:54.144Z,47.20
2023-02-09T14:40:56.104Z,47.48
2023-02-09T14:42:17.873Z,47.46
2023-02-09T14:43:24.823Z,47.33
2023-02-09T14:44:28.315Z,47.44
2023-02-09T14:45:39.641Z,47.13
2023-02-09T14:46:49.396Z,46.98
2023-02-09T14:48:01.901Z,46.99
2023-02-09T14:49:05.340Z,47.16
2023-02-09T14:50:11.710Z,47.04
2023-02-09T14:51:16.770Z,46.92
2023-02-09T14:52:23.604Z,46.66
2023-02-09T14:53:29.211Z,47.20
2023-02-09T14:54:35.254Z,46.77
2023-02-09T14:55:40.659Z,47.01
2023-02-09T14:56:43.671Z,47.24
2023-02-09T14:57:46.326Z,47.22
2023-02-09T14:58:48.862Z,47.03
2023-02-09T14:59:51.568Z,47.17
2023-02-09T15:00:56.224Z,46.81